< Typhoon 201201 2012 Season Typhoon 201203 >
Typhoon 201202 (SANVU)
General InformationTrack Information on Google MapsDetailed Wind InformationAccess Analytics MapList of All Images || NewsDisaster Info.WeblogTrackbackTyphoon FrontTwiphoonTyphoon Now!Typhoon ImaginationResourceGoogle EarthGE AnimationAtom FeedGeoJSON
Detalied Best Track (Time Zone = UTC)
Year Month Day Hour Lat. Long. Pressure (hPa) Wind (kt) Class Image Chart
2012 5 20 18 10.5 148.5 1006 0 2 Image Chart
2012 5 21 00 10.9 147.7 1006 0 2 Image Chart
2012 5 21 06 11.4 146.7 1006 0 2 Image Chart
2012 5 21 12 12.2 145.6 1006 0 2 Image Chart
2012 5 21 18 12.7 144.8 1004 0 2 Image Chart
2012 5 22 00 13.2 144.0 1004 0 2 Image Chart
2012 5 22 06 13.9 143.3 1002 35 3 Image Chart
2012 5 22 12 14.6 142.3 1002 35 3 Image Chart
2012 5 22 18 15.4 141.5 998 40 3 Image Chart
2012 5 23 00 16.1 140.9 998 40 3 Image Chart
2012 5 23 06 16.7 140.5 996 40 3 Image Chart
2012 5 23 12 17.4 140.0 992 45 3 Image Chart
2012 5 23 18 18.1 139.7 990 45 3 Image Chart
2012 5 24 00 18.8 139.4 990 45 3 Image Chart
2012 5 24 06 19.6 139.1 985 50 4 Image Chart
2012 5 24 12 20.7 139.0 980 55 4 Image Chart
2012 5 24 18 21.4 139.0 975 60 4 Image Chart
2012 5 25 00 22.2 139.2 975 60 4 Image Chart
2012 5 25 06 23.0 139.6 975 60 4 Image Chart
2012 5 25 12 23.5 139.9 975 60 4 Image Chart
2012 5 25 18 23.9 140.4 975 60 4 Image Chart
2012 5 26 00 24.5 141.1 975 60 4 Image Chart
2012 5 26 06 24.8 142.0 975 60 4 Image Chart
2012 5 26 12 25.1 143.3 980 55 4 Image Chart
2012 5 26 18 25.4 144.6 985 50 4 Image Chart
2012 5 27 00 26.5 146.0 990 45 3 Image Chart
2012 5 27 06 27.5 147.1 992 45 3 Image Chart
2012 5 27 12 28.3 148.7 994 40 3 Image Chart
2012 5 27 18 29.5 150.0 994 0 6 Image Chart
2012 5 28 00 31.0 152.0 1000 0 6 Image Chart
2012 5 28 06 31.4 153.3 1002 0 6 Image Chart
2012 5 28 12 31.8 154.9 1004 0 6 Image Chart
2012 5 28 18 32.6 157.0 1008 0 6 Image Chart
2012 5 29 00 34.0 158.7 1010 0 6 Image Chart
2012 5 29 06 34.6 160.7 1012 0 6 Image Chart
2012 5 29 12 35.2 163.0 1014 0 6 Image Chart
2012 5 29 18 35.4 164.0 1016 0 6 Image Chart
2012 5 30 00 35.4 167.4 1016 0 6 Image Chart
2012 5 30 06 35.7 169.1 1016 0 6 Image Chart
2012 5 30 12 35.5 170.6 1016 0 6 Image Chart
Japan Meteorological Agency Best Track Data | Correction Date : 2012-06-26
< Typhoon 201201 2012 Season Typhoon 201203 >

Help